Date,TemperatureHighF,TemperatureAvgF,TemperatureLowF,DewpointHighF,DewpointAvgF,DewpointLowF,HumidityHigh,HumidityAvg,HumidityLow,PressureMaxIn,PressureMinIn,WindSpeedMaxMPH,WindSpeedAvgMPH,GustSpeedMaxMPH,PrecipitationSumIn
2013-11-1,53.4,50.4,48.9,48.4,45.7,44.3,85,84,79,30.27,29.83,10,1,10,0.08
2013-11-2,49.1,44.1,38.7,44.9,40.5,35.1,88,87,85,29.85,29.44,13,4,13,1.50
2013-11-3,50.5,38.9,31.6,43.7,33.2,25.3,88,80,55,30.12,29.85,6,0,6,0.04
2013-11-4,47.3,37.5,29.7,36.9,27.7,22.2,87,69,38,30.21,30.12,8,1,9,0.00
2013-11-5,42.1,40.2,38.1,37.5,34.0,26.8,85,79,59,30.27,30.06,8,2,9,0.08
2013-11-6,47.8,43.7,39.7,42.3,36.3,28.4,87,76,53,30.33,30.03,10,3,15,0.04
2013-11-7,48.0,44.5,42.3,44.5,40.3,32.0,88,85,65,30.03,29.68,14,3,17,1.30
2013-11-8,53.6,46.3,41.5,48.6,38.9,30.1,88,77,45,30.18,29.94,7,1,9,0.20
2013-11-9,47.3,43.6,40.5,41.1,37.3,35.0,87,78,63,30.18,30.12,10,2,10,0.04
2013-11-10,50.4,44.8,38.7,40.4,34.3,24.1,85,68,39,30.18,30.15,15,2,15,0.00
2013-11-11,55.0,48.8,46.2,27.9,24.3,22.4,40,38,35,30.21,30.03,19,7,19,0.00
2013-11-12,57.2,49.3,44.6,46.9,36.8,24.9,81,63,39,30.33,30.03,14,2,14,0.16
2013-11-13,54.1,49.4,45.0,47.6,41.3,36.3,86,74,54,30.42,30.33,10,2,10,0.04
2013-11-14,49.8,44.4,39.4,45.2,38.5,32.0,85,79,70,30.33,30.06,6,0,8,0.00
2013-11-15,45.1,41.8,39.4,41.5,36.8,33.8,88,82,76,30.06,29.23,19,4,19,1.18
2013-11-16,45.0,38.9,32.9,41.0,34.0,29.5,88,82,67,29.74,29.32,8,1,10,0.04
2013-11-17,50.2,42.8,36.3,39.3,34.8,30.0,84,74,48,29.88,29.74,17,4,17,0.08
2013-11-18,45.5,43.8,41.7,41.3,39.3,36.6,87,84,76,29.88,29.56,7,1,10,1.34
2013-11-19,43.3,37.4,27.5,39.1,24.2,9.0,88,62,31,30.09,29.56,13,2,13,0.20
2013-11-20,37.2,29.1,25.2,15.0,11.5,8.3,59,48,38,30.53,30.09,10,3,11,0.20
2013-11-21,38.5,28.8,24.3,15.8,12.5,9.4,60,51,37,30.68,30.53,9,1,9,0.20
2013-11-22,42.6,32.3,25.7,22.7,16.3,12.9,64,52,38,30.68,30.47,10,2,10,0.20
2013-11-23,44.6,35.2,28.0,24.4,21.0,16.0,71,57,42,30.47,30.24,9,1,9,0.20
2013-11-24,49.8,37.2,29.7,35.3,26.1,21.4,81,65,42,30.27,30.21,6,0,7,0.20
2013-11-25,50.4,41.2,36.0,30.2,26.9,24.0,72,58,39,30.33,30.27,10,2,10,0.20
2013-11-26,47.1,39.7,32.2,31.9,25.3,22.8,78,57,39,30.27,30.12,9,2,9,0.20
2013-11-27,53.1,44.3,38.5,27.0,23.9,21.3,54,45,34,30.12,30.00,12,3,12,0.20
2013-11-28,50.2,42.8,35.4,34.9,27.9,22.5,70,56,41,30.21,30.03,7,1,8,0.20
2013-11-29,46.0,44.5,43.3,40.5,38.2,34.6,85,78,70,30.33,30.18,7,0,7,0.28
2013-11-30,46.4,44.5,43.2,42.8,40.7,39.3,87,86,85,30.33,30.06,6,0,6,1.10